createdAt,value
2023-04-18T00:02:19.444Z,4.00
2023-04-18T00:05:47.549Z,3.80
2023-04-18T00:09:11.905Z,4.33
2023-04-18T00:12:36.465Z,3.50
2023-04-18T00:16:02.453Z,4.23
2023-04-18T00:19:27.688Z,3.67
2023-04-18T00:22:53.287Z,3.50
2023-04-18T00:26:17.683Z,4.33
2023-04-18T00:29:44.573Z,3.83
2023-04-18T00:33:09.463Z,3.67
2023-04-18T00:36:33.383Z,3.63
2023-04-18T00:39:56.932Z,3.67
2023-04-18T00:43:23.242Z,4.37
2023-04-18T00:46:47.270Z,3.43
2023-04-18T00:50:14.245Z,4.03
2023-04-18T00:53:38.761Z,3.30
2023-04-18T00:57:02.852Z,3.87
2023-04-18T01:00:26.983Z,2.80
2023-04-18T01:03:51.148Z,3.70
2023-04-18T01:07:16.809Z,3.53
2023-04-18T01:10:40.529Z,3.37
2023-04-18T01:14:06.625Z,3.40
2023-04-18T01:17:34.589Z,4.30
2023-04-18T01:21:00.562Z,3.53
2023-04-18T01:24:26.821Z,3.57
2023-04-18T01:27:51.600Z,3.63
2023-04-18T01:31:16.084Z,3.83
2023-04-18T01:34:39.932Z,3.23
2023-04-18T01:38:03.936Z,2.93
2023-04-18T01:41:32.273Z,3.00
2023-04-18T01:44:56.165Z,3.30
2023-04-18T01:48:19.703Z,3.43
2023-04-18T01:51:43.826Z,2.80
2023-04-18T01:55:08.098Z,3.50
2023-04-18T01:58:33.798Z,3.63
2023-04-18T02:01:57.604Z,3.33
2023-04-18T02:05:21.774Z,3.20
2023-04-18T02:08:45.680Z,3.33
2023-04-18T02:12:10.079Z,3.90
2023-04-18T02:15:35.478Z,4.30
2023-04-18T02:18:59.452Z,3.93
2023-04-18T02:22:22.933Z,3.73
2023-04-18T02:25:46.432Z,3.30
2023-04-18T02:29:10.709Z,3.37
2023-04-18T02:32:36.880Z,3.77
2023-04-18T02:36:01.602Z,3.80
2023-04-18T02:39:25.504Z,3.50
2023-04-18T02:42:49.029Z,4.17
2023-04-18T02:46:12.904Z,3.30
2023-04-18T02:49:37.948Z,3.40
2023-04-18T02:53:01.729Z,3.13
2023-04-18T02:56:39.844Z,3.60
2023-04-18T03:00:17.497Z,3.60
2023-04-18T03:03:56.357Z,6.63
2023-04-18T03:07:35.385Z,4.20
2023-04-18T03:11:00.816Z,4.20
2023-04-18T03:14:26.921Z,3.77
2023-04-18T03:17:52.868Z,4.10
2023-04-18T03:21:19.442Z,4.13
2023-04-18T03:24:44.625Z,3.53
2023-04-18T03:28:09.509Z,3.50
2023-04-18T03:31:33.468Z,3.23
2023-04-18T03:34:57.826Z,3.70
2023-04-18T03:38:21.534Z,3.17
2023-04-18T03:41:47.194Z,3.27
2023-04-18T03:45:12.089Z,3.30
2023-04-18T03:48:37.375Z,3.23
2023-04-18T03:52:05.649Z,4.50
2023-04-18T03:55:29.685Z,4.17
2023-04-18T03:58:55.449Z,3.50
2023-04-18T04:02:20.037Z,3.17
2023-04-18T04:05:44.042Z,3.67
2023-04-18T04:09:08.485Z,3.53
2023-04-18T04:12:32.385Z,3.73
2023-04-18T04:15:58.935Z,3.40
2023-04-18T04:19:23.226Z,3.20
2023-04-18T04:22:55.400Z,3.27
2023-04-18T04:26:19.519Z,3.80
2023-04-18T04:29:52.202Z,3.50
2023-04-18T04:33:19.311Z,3.90
2023-04-18T04:36:43.851Z,3.60
2023-04-18T04:40:11.157Z,3.70
2023-04-18T04:43:47.013Z,4.43
2023-04-18T04:47:14.217Z,4.20
2023-04-18T04:50:42.080Z,3.67
2023-04-18T04:54:08.671Z,3.80
2023-04-18T04:57:32.556Z,3.30
2023-04-18T05:00:57.935Z,3.60
2023-04-18T05:04:22.681Z,3.23
2023-04-18T05:07:48.051Z,5.23
2023-04-18T05:11:11.845Z,3.30
2023-04-18T05:14:35.661Z,3.40
2023-04-18T05:17:59.677Z,3.73
2023-04-18T05:21:24.672Z,3.83
2023-04-18T05:24:49.865Z,3.93
2023-04-18T05:28:13.347Z,3.70
2023-04-18T05:31:37.237Z,4.20
2023-04-18T05:35:00.731Z,4.10
2023-04-18T05:38:24.796Z,3.80
2023-04-18T05:41:49.914Z,3.90
2023-04-18T05:45:13.883Z,3.77
2023-04-18T05:48:37.785Z,3.93
2023-04-18T05:52:01.588Z,3.77
2023-04-18T05:55:25.693Z,4.27
2023-04-18T05:58:51.347Z,5.20
2023-04-18T06:02:15.525Z,3.80
2023-04-18T06:05:41.018Z,4.53
2023-04-18T06:09:06.343Z,3.83
2023-04-18T06:12:30.179Z,3.80
2023-04-18T06:15:55.677Z,3.50
2023-04-18T06:19:19.198Z,4.33
2023-04-18T06:22:43.044Z,3.33
2023-04-18T06:26:07.755Z,3.30
2023-04-18T06:29:33.247Z,4.50
2023-04-18T06:32:58.793Z,4.10
2023-04-18T06:36:22.877Z,4.33
2023-04-18T06:39:47.773Z,3.27
2023-04-18T06:43:12.173Z,4.27
2023-04-18T06:46:36.546Z,4.47
2023-04-18T06:50:02.093Z,4.10
2023-04-18T06:53:26.244Z,3.73
2023-04-18T06:56:50.047Z,3.53
2023-04-18T07:00:14.834Z,4.33
2023-04-18T07:03:39.846Z,4.30
2023-04-18T07:07:05.303Z,4.70
2023-04-18T07:10:29.254Z,3.70
2023-04-18T07:13:52.755Z,3.50
2023-04-18T07:17:16.610Z,3.97
2023-04-18T07:20:40.464Z,4.00
2023-04-18T07:24:05.851Z,3.83
2023-04-18T07:27:29.697Z,4.23
2023-04-18T07:30:53.198Z,4.13
2023-04-18T07:34:17.351Z,3.37
2023-04-18T07:37:40.956Z,3.73
2023-04-18T07:41:06.291Z,3.00
2023-04-18T07:44:30.463Z,3.80
2023-04-18T07:47:54.429Z,3.33
2023-04-18T07:51:19.023Z,3.83
2023-04-18T07:54:42.784Z,4.77
2023-04-18T07:58:08.111Z,5.33
2023-04-18T08:01:31.963Z,4.23
2023-04-18T08:04:56.291Z,3.60
2023-04-18T08:08:20.800Z,3.97
2023-04-18T08:11:44.739Z,3.77
2023-04-18T08:15:11.215Z,4.30
2023-04-18T08:18:35.064Z,4.40
2023-04-18T08:22:10.303Z,4.23
2023-04-18T08:25:34.126Z,3.87
2023-04-18T08:28:58.022Z,4.57
2023-04-18T08:32:23.336Z,3.20
2023-04-18T08:35:47.144Z,4.87
2023-04-18T08:39:11.212Z,3.13
2023-04-18T08:42:36.165Z,4.00
2023-04-18T08:46:01.643Z,4.20
2023-04-18T08:49:28.515Z,3.90
2023-04-18T08:52:55.452Z,4.00
2023-04-18T08:56:22.273Z,3.90
2023-04-18T08:59:49.636Z,4.27
2023-04-18T09:03:16.811Z,4.07
2023-04-18T09:06:53.480Z,3.80
2023-04-18T09:10:28.632Z,4.27
2023-04-18T09:13:53.085Z,3.93
2023-04-18T09:17:21.881Z,3.43
2023-04-18T09:20:47.529Z,4.00
2023-04-18T09:24:23.882Z,4.23
2023-04-18T09:27:48.109Z,4.03
2023-04-18T09:31:15.164Z,4.43
2023-04-18T09:34:43.506Z,5.23
2023-04-18T09:38:08.616Z,4.33
2023-04-18T09:41:34.007Z,4.63
2023-04-18T09:45:04.800Z,4.77
2023-04-18T09:48:28.669Z,5.63
2023-04-18T09:51:54.397Z,4.97
2023-04-18T09:55:20.313Z,6.07
2023-04-18T09:58:48.472Z,5.30
2023-04-18T10:02:22.153Z,5.77
2023-04-18T10:05:47.573Z,4.50
2023-04-18T10:09:11.702Z,5.57
2023-04-18T10:12:36.999Z,5.27
2023-04-18T10:16:02.480Z,5.20
2023-04-18T10:19:28.203Z,5.17
2023-04-18T10:22:52.767Z,4.37
2023-04-18T10:26:16.865Z,5.20
2023-04-18T10:29:51.205Z,5.00
2023-04-18T10:34:00.629Z,4.20
2023-04-18T10:37:27.938Z,5.00
2023-04-18T10:40:51.698Z,4.23
2023-04-18T10:44:22.331Z,3.30
2023-04-18T10:47:46.394Z,3.90
2023-04-18T10:51:20.892Z,3.70
2023-04-18T10:54:55.185Z,3.70
2023-04-18T10:58:20.139Z,4.30
2023-04-18T11:01:52.644Z,4.17
2023-04-18T11:05:21.884Z,2.53
2023-04-18T11:08:46.768Z,3.87
2023-04-18T11:12:12.499Z,4.20
2023-04-18T11:15:39.835Z,3.33
2023-04-18T11:19:21.113Z,2.70
2023-04-18T11:22:50.130Z,3.67
2023-04-18T11:26:17.454Z,3.30
2023-04-18T11:29:41.881Z,2.63
2023-04-18T11:33:08.371Z,4.83
2023-04-18T11:36:35.130Z,2.67
2023-04-18T11:39:59.349Z,3.60
2023-04-18T11:43:26.273Z,3.30
2023-04-18T11:46:51.355Z,2.57
2023-04-18T11:50:15.580Z,2.57
2023-04-18T11:53:40.507Z,2.80
2023-04-18T11:57:04.859Z,3.73
2023-04-18T12:00:38.454Z,2.77
2023-04-18T12:04:03.743Z,3.23
2023-04-18T12:07:36.986Z,2.13
2023-04-18T12:11:00.805Z,2.20
2023-04-18T12:14:24.941Z,2.50
2023-04-18T12:17:51.657Z,2.40
2023-04-18T12:21:16.932Z,2.60
2023-04-18T12:24:41.704Z,2.97
2023-04-18T12:28:16.756Z,2.77
2023-04-18T12:31:40.695Z,2.80
2023-04-18T12:35:07.589Z,3.43
2023-04-18T12:38:31.073Z,3.47
2023-04-18T12:41:54.547Z,4.53
2023-04-18T12:45:19.972Z,3.33
2023-04-18T12:48:43.794Z,2.50
2023-04-18T12:52:08.888Z,3.10
2023-04-18T12:55:32.400Z,2.80
2023-04-18T12:58:56.283Z,2.80
2023-04-18T13:02:20.212Z,3.03
2023-04-18T13:05:44.150Z,3.30
2023-04-18T13:09:09.358Z,3.80
2023-04-18T13:12:32.977Z,3.10
2023-04-18T13:15:56.837Z,3.30
2023-04-18T13:19:20.621Z,2.60
2023-04-18T13:22:44.903Z,2.37
2023-04-18T13:26:09.956Z,2.30
2023-04-18T13:29:33.785Z,2.50
2023-04-18T13:32:57.740Z,4.03
2023-04-18T13:36:21.617Z,2.10
2023-04-18T13:39:46.255Z,2.37
2023-04-18T13:43:13.020Z,2.30
2023-04-18T13:46:36.627Z,2.50
2023-04-18T13:50:00.643Z,2.50
2023-04-18T13:53:24.553Z,2.70
2023-04-18T13:56:48.352Z,2.60
2023-04-18T14:00:15.226Z,2.70
2023-04-18T14:03:41.282Z,2.27
2023-04-18T14:07:07.922Z,7.57
2023-04-18T14:10:32.262Z,3.17
2023-04-18T14:13:55.996Z,5.50
2023-04-18T14:17:20.808Z,2.53
2023-04-18T14:20:44.614Z,3.10
2023-04-18T14:24:09.483Z,2.67
2023-04-18T14:27:33.034Z,2.50
2023-04-18T14:30:57.881Z,2.30
2023-04-18T14:34:22.917Z,2.77
2023-04-18T14:37:46.745Z,2.50
2023-04-18T14:41:11.054Z,2.57
2023-04-18T14:44:35.266Z,3.50
2023-04-18T14:47:59.399Z,2.63
2023-04-18T14:51:24.855Z,2.50
2023-04-18T14:54:48.652Z,2.40
2023-04-18T14:58:12.475Z,2.00
2023-04-18T15:01:36.296Z,2.60
2023-04-18T15:05:00.250Z,3.07
2023-04-18T15:08:25.231Z,1.77
2023-04-18T15:11:49.036Z,2.23
2023-04-18T15:15:13.591Z,2.10
2023-04-18T15:18:37.045Z,2.07
2023-04-18T15:22:00.992Z,2.13
2023-04-18T15:25:26.464Z,2.00
2023-04-18T15:28:50.583Z,1.80
2023-04-18T15:32:14.531Z,1.90
2023-04-18T15:35:38.347Z,2.17
2023-04-18T15:39:04.249Z,1.93
2023-04-18T15:42:30.929Z,2.00
2023-04-18T15:45:54.415Z,1.73
2023-04-18T15:49:18.217Z,2.10
2023-04-18T15:52:42.106Z,1.60
2023-04-18T15:56:06.404Z,1.50
2023-04-18T15:59:31.442Z,2.00
2023-04-18T16:02:54.905Z,1.80
2023-04-18T16:06:22.217Z,1.83
2023-04-18T16:09:45.889Z,1.83
2023-04-18T16:13:09.349Z,1.73
2023-04-18T16:16:34.884Z,2.50
2023-04-18T16:19:58.717Z,2.03
2023-04-18T16:23:22.551Z,2.17
2023-04-18T16:26:46.027Z,2.17
2023-04-18T16:30:11.147Z,2.20
2023-04-18T16:33:36.117Z,2.60
2023-04-18T16:37:00.127Z,2.27
2023-04-18T16:40:23.813Z,2.10
2023-04-18T16:43:47.707Z,2.40
2023-04-18T16:47:11.808Z,2.53
2023-04-18T16:50:36.770Z,2.50
2023-04-18T16:54:00.322Z,2.90
2023-04-18T16:57:24.143Z,2.80
2023-04-18T17:00:48.062Z,2.57
2023-04-18T17:04:12.049Z,2.57
2023-04-18T17:07:37.283Z,2.87
2023-04-18T17:11:02.191Z,3.20
2023-04-18T17:14:26.250Z,3.00
2023-04-18T17:17:50.336Z,2.30
2023-04-18T17:21:14.247Z,2.93
2023-04-18T17:24:39.198Z,2.43
2023-04-18T17:28:03.329Z,2.50
2023-04-18T17:31:27.215Z,2.13
2023-04-18T17:34:51.276Z,2.37
2023-04-18T17:38:15.186Z,4.00
2023-04-18T17:41:40.465Z,2.50
2023-04-18T17:45:04.594Z,2.50
2023-04-18T17:48:28.191Z,2.47
2023-04-18T17:51:52.042Z,2.90
2023-04-18T17:55:16.188Z,3.63
2023-04-18T17:58:41.184Z,2.70
2023-04-18T18:02:05.232Z,2.27
2023-04-18T18:05:30.179Z,3.00
2023-04-18T18:08:53.771Z,2.60
2023-04-18T18:12:17.784Z,2.20
2023-04-18T18:15:43.180Z,2.00
2023-04-18T18:19:08.255Z,2.10
2023-04-18T18:22:32.074Z,1.90
2023-04-18T18:25:55.972Z,3.40
2023-04-18T18:29:20.272Z,2.17
2023-04-18T18:32:45.502Z,1.97
2023-04-18T18:36:09.401Z,2.00
2023-04-18T18:39:32.921Z,2.87
2023-04-18T18:42:57.363Z,2.43
2023-04-18T18:46:21.499Z,2.70
2023-04-18T18:49:47.297Z,2.97
2023-04-18T18:53:11.185Z,2.30
2023-04-18T18:56:35.039Z,2.10
2023-04-18T18:59:59.016Z,2.53
2023-04-18T19:03:23.460Z,2.57
2023-04-18T19:06:48.593Z,2.60
2023-04-18T19:10:12.679Z,2.90
2023-04-18T19:13:36.608Z,2.53
2023-04-18T19:17:00.425Z,2.77
2023-04-18T19:20:24.432Z,2.43
2023-04-18T19:23:49.747Z,2.53
2023-04-18T19:27:13.593Z,3.10
2023-04-18T19:30:37.436Z,3.23
2023-04-18T19:34:01.404Z,2.90
2023-04-18T19:37:25.392Z,2.60
2023-04-18T19:40:50.709Z,2.70
2023-04-18T19:44:14.705Z,2.43
2023-04-18T19:47:38.555Z,2.50
2023-04-18T19:51:04.121Z,2.57
2023-04-18T19:54:27.992Z,2.60
2023-04-18T19:57:57.318Z,2.50
2023-04-18T20:01:23.548Z,2.73
2023-04-18T20:04:47.216Z,2.47
2023-04-18T20:08:11.171Z,2.40
2023-04-18T20:11:35.025Z,2.40
2023-04-18T20:15:01.201Z,3.17
2023-04-18T20:18:25.399Z,2.73
2023-04-18T20:21:49.224Z,3.23
2023-04-18T20:25:13.154Z,2.03
2023-04-18T20:28:37.871Z,2.73
2023-04-18T20:32:03.316Z,2.90
2023-04-18T20:35:28.164Z,2.93
2023-04-18T20:38:51.743Z,2.30
2023-04-18T20:42:15.735Z,2.77
2023-04-18T20:45:42.859Z,2.43
2023-04-18T20:49:08.037Z,2.40
2023-04-18T20:52:31.954Z,3.47
2023-04-18T20:55:55.833Z,2.50
2023-04-18T20:59:20.036Z,2.50
2023-04-18T21:02:44.963Z,3.67
2023-04-18T21:06:09.948Z,3.00
2023-04-18T21:09:36.502Z,3.43
2023-04-18T21:13:00.052Z,2.97
2023-04-18T21:16:24.424Z,2.90
2023-04-18T21:19:48.902Z,2.47
2023-04-18T21:23:14.091Z,2.20
2023-04-18T21:26:37.983Z,2.90
2023-04-18T21:30:03.383Z,2.40
2023-04-18T21:33:28.530Z,2.40
2023-04-18T21:36:52.402Z,2.23
2023-04-18T21:40:17.558Z,2.97
2023-04-18T21:43:41.856Z,2.00
2023-04-18T21:47:05.483Z,2.50
2023-04-18T21:50:29.517Z,2.87
2023-04-18T21:53:54.119Z,2.67
2023-04-18T21:57:19.033Z,2.63
2023-04-18T22:00:42.976Z,2.53
2023-04-18T22:04:06.880Z,2.30
2023-04-18T22:07:31.050Z,2.40
2023-04-18T22:10:55.973Z,3.10
2023-04-18T22:14:21.189Z,3.10
2023-04-18T22:17:46.078Z,3.30
2023-04-18T22:21:10.407Z,2.90
2023-04-18T22:24:34.214Z,2.50
2023-04-18T22:27:58.042Z,2.23
2023-04-18T22:31:23.398Z,2.90
2023-04-18T22:34:47.259Z,3.30
2023-04-18T22:38:11.208Z,2.97
2023-04-18T22:41:35.059Z,3.10
2023-04-18T22:44:58.877Z,3.43
2023-04-18T22:48:24.196Z,2.67
2023-04-18T22:51:47.954Z,3.50
2023-04-18T22:55:13.681Z,2.83
2023-04-18T22:58:37.110Z,2.73
2023-04-18T23:02:01.139Z,2.67
2023-04-18T23:05:26.287Z,2.30
2023-04-18T23:08:50.136Z,3.17
2023-04-18T23:12:13.650Z,2.50
2023-04-18T23:15:37.568Z,2.30
2023-04-18T23:19:01.195Z,3.70
2023-04-18T23:22:26.628Z,3.10
2023-04-18T23:25:50.458Z,3.27
2023-04-18T23:29:13.956Z,2.50
2023-04-18T23:32:37.836Z,2.80
2023-04-18T23:36:02.024Z,3.10
2023-04-18T23:39:27.796Z,2.40
2023-04-18T23:42:51.639Z,2.80
2023-04-18T23:46:15.971Z,2.53
2023-04-18T23:49:40.012Z,2.40
2023-04-18T23:53:03.962Z,2.40
2023-04-18T23:56:28.768Z,2.50
2023-04-18T23:59:52.585Z,2.50
